createdAt,value
2023-01-15T00:03:16.100Z,20.02
2023-01-15T00:08:18.898Z,20.01
2023-01-15T00:13:21.685Z,19.99
2023-01-15T00:18:25.869Z,19.97
2023-01-15T00:23:46.406Z,19.95
2023-01-15T00:28:49.495Z,19.94
2023-01-15T00:33:53.661Z,19.93
2023-01-15T00:38:56.716Z,19.92
2023-01-15T00:43:59.749Z,19.90
2023-01-15T00:49:04.019Z,19.88
2023-01-15T00:54:07.067Z,19.88
2023-01-15T00:59:09.933Z,19.88
2023-01-15T01:04:14.105Z,19.85
2023-01-15T01:09:17.416Z,19.82
2023-01-15T01:14:20.206Z,19.81
2023-01-15T01:19:25.646Z,19.81
2023-01-15T01:24:28.709Z,19.81
2023-01-15T01:29:31.549Z,19.81
2023-01-15T01:34:35.696Z,19.84
2023-01-15T01:39:38.483Z,19.84
2023-01-15T01:45:02.863Z,19.85
2023-01-15T01:50:09.828Z,19.84
2023-01-15T01:55:15.258Z,19.82
2023-01-15T02:00:18.565Z,19.82
2023-01-15T02:05:29.250Z,19.82
2023-01-15T02:10:32.318Z,19.82
2023-01-15T02:15:38.167Z,19.81
2023-01-15T02:20:44.465Z,19.79
2023-01-15T02:26:21.545Z,19.79
2023-01-15T02:31:28.753Z,19.77
2023-01-15T02:36:34.284Z,19.77
2023-01-15T02:41:40.312Z,19.77
2023-01-15T02:46:45.021Z,19.77
2023-01-15T02:51:51.801Z,19.76
2023-01-15T02:56:57.384Z,19.77
2023-01-15T03:02:02.855Z,19.77
2023-01-15T03:07:08.532Z,19.75
2023-01-15T03:12:16.107Z,19.75
2023-01-15T03:17:23.708Z,19.74
2023-01-15T03:22:29.912Z,19.73
2023-01-15T03:27:33.223Z,19.74
2023-01-15T03:32:37.389Z,19.73
2023-01-15T03:37:40.165Z,19.72
2023-01-15T03:42:49.321Z,19.74
2023-01-15T03:47:58.554Z,19.71
2023-01-15T03:53:08.124Z,19.69
2023-01-15T03:58:13.720Z,19.69
2023-01-15T04:03:19.172Z,19.69
2023-01-15T04:08:22.046Z,19.70
2023-01-15T04:13:25.103Z,19.70
2023-01-15T04:18:30.157Z,19.71
2023-01-15T04:23:32.946Z,19.71
2023-01-15T04:28:35.780Z,19.69
2023-01-15T04:33:40.193Z,19.69
2023-01-15T04:38:43.087Z,19.68
2023-01-15T04:44:03.628Z,19.67
2023-01-15T04:49:10.315Z,19.65
2023-01-15T04:54:14.680Z,19.63
2023-01-15T04:59:19.132Z,19.64
2023-01-15T05:04:23.639Z,19.64
2023-01-15T05:09:26.452Z,19.63
2023-01-15T05:14:29.470Z,19.63
2023-01-15T05:19:33.704Z,19.62
2023-01-15T05:24:36.560Z,19.61
2023-01-15T05:29:39.454Z,19.61
2023-01-15T05:34:43.721Z,19.63
2023-01-15T05:39:46.564Z,19.62
2023-01-15T05:44:49.345Z,19.61
2023-01-15T05:49:53.483Z,19.61
2023-01-15T05:54:56.328Z,19.60
2023-01-15T05:59:59.354Z,19.59
2023-01-15T06:05:03.710Z,19.59
2023-01-15T06:10:07.653Z,19.59
2023-01-15T06:15:11.789Z,19.59
2023-01-15T06:20:16.439Z,19.59
2023-01-15T06:25:19.340Z,19.56
2023-01-15T06:30:22.500Z,19.57
2023-01-15T06:35:26.736Z,19.57
2023-01-15T06:40:29.691Z,19.55
2023-01-15T06:45:55.896Z,19.56
2023-01-15T06:51:00.273Z,19.55
2023-01-15T06:56:03.184Z,19.55
2023-01-15T07:01:19.591Z,19.55
2023-01-15T07:06:26.393Z,19.55
2023-01-15T07:11:36.408Z,19.55
2023-01-15T07:16:39.193Z,19.55
2023-01-15T07:21:43.481Z,19.53
2023-01-15T07:26:46.664Z,19.52
2023-01-15T07:31:49.493Z,19.52
2023-01-15T07:36:53.666Z,19.51
2023-01-15T07:42:14.195Z,19.51
2023-01-15T07:47:37.358Z,19.50
2023-01-15T07:52:41.596Z,19.51
2023-01-15T07:57:44.916Z,19.51
2023-01-15T08:02:49.763Z,19.49
2023-01-15T08:07:53.925Z,19.47
2023-01-15T08:13:30.249Z,19.46
2023-01-15T08:18:33.098Z,19.42
2023-01-15T08:23:37.416Z,19.41
2023-01-15T08:28:40.320Z,19.40
2023-01-15T08:33:43.113Z,19.38
2023-01-15T08:38:49.871Z,19.39
2023-01-15T08:43:52.717Z,19.39
2023-01-15T08:48:55.537Z,19.38
2023-01-15T08:53:59.700Z,19.37
2023-01-15T08:59:06.273Z,19.36
2023-01-15T09:04:09.218Z,19.35
2023-01-15T09:09:13.957Z,19.35
2023-01-15T09:14:58.854Z,19.42
2023-01-15T09:19:40.946Z,19.47
2023-01-15T09:24:45.192Z,19.48
2023-01-15T09:29:47.978Z,19.49
2023-01-15T09:34:50.752Z,19.48
2023-01-15T09:39:54.867Z,19.47
2023-01-15T09:45:20.768Z,19.46
2023-01-15T09:50:32.281Z,19.45
2023-01-15T09:55:41.650Z,19.46
2023-01-15T10:00:46.161Z,19.44
2023-01-15T10:05:53.806Z,19.42
2023-01-15T10:11:01.866Z,19.41
2023-01-15T10:16:05.231Z,19.41
2023-01-15T10:21:14.769Z,19.40
2023-01-15T10:26:31.743Z,19.39
2023-01-15T10:31:47.647Z,19.37
2023-01-15T10:36:56.233Z,19.38
2023-01-15T10:42:08.685Z,19.37
2023-01-15T10:47:15.294Z,19.35
2023-01-15T10:52:25.330Z,19.36
2023-01-15T10:57:40.065Z,19.35
2023-01-15T11:02:46.230Z,19.35
2023-01-15T11:08:19.541Z,19.36
2023-01-15T11:13:39.281Z,19.41
2023-01-15T11:19:00.847Z,19.45
2023-01-15T11:24:03.817Z,19.47
2023-01-15T11:29:16.596Z,19.46
2023-01-15T11:34:21.949Z,19.46
2023-01-15T11:39:26.999Z,19.44
2023-01-15T11:44:48.609Z,19.44
2023-01-15T11:50:09.737Z,19.66
2023-01-15T11:55:13.859Z,19.81
2023-01-15T12:00:23.769Z,19.94
2023-01-15T12:05:29.580Z,19.98
2023-01-15T12:10:49.726Z,20.09
2023-01-15T12:15:58.625Z,20.16
2023-01-15T12:21:05.161Z,20.24
2023-01-15T12:26:17.656Z,20.23
2023-01-15T12:31:25.326Z,20.29
2023-01-15T12:36:31.441Z,20.32
2023-01-15T12:41:53.918Z,20.23
2023-01-15T12:46:58.146Z,20.28
2023-01-15T12:52:04.873Z,20.35
2023-01-15T12:57:15.304Z,20.32
2023-01-15T13:02:23.303Z,20.33
2023-01-15T13:07:29.436Z,20.36
2023-01-15T13:12:32.298Z,20.24
2023-01-15T13:17:44.583Z,20.38
2023-01-15T13:22:54.092Z,20.46
2023-01-15T13:28:09.828Z,20.49
2023-01-15T13:33:23.538Z,20.53
2023-01-15T13:38:28.605Z,20.55
2023-01-15T13:43:35.717Z,20.52
2023-01-15T13:48:45.332Z,20.52
2023-01-15T13:53:49.601Z,20.67
2023-01-15T13:58:57.203Z,20.78
2023-01-15T14:04:04.877Z,20.61
2023-01-15T14:09:09.641Z,20.64
2023-01-15T14:14:29.803Z,20.90
2023-01-15T14:19:58.305Z,20.92
2023-01-15T14:25:23.157Z,20.98
2023-01-15T14:30:38.310Z,21.10
2023-01-15T14:35:45.570Z,21.17
2023-01-15T14:40:56.592Z,21.22
2023-01-15T14:46:13.793Z,21.24
2023-01-15T14:51:20.109Z,21.24
2023-01-15T14:56:25.213Z,21.19
2023-01-15T15:01:36.975Z,21.10
2023-01-15T15:06:49.129Z,21.09
2023-01-15T15:12:09.645Z,21.03
2023-01-15T15:17:20.693Z,20.99
2023-01-15T15:22:28.736Z,20.99
2023-01-15T15:27:31.585Z,20.89
2023-01-15T15:32:40.401Z,20.76
2023-01-15T15:37:46.899Z,20.56
2023-01-15T15:43:10.177Z,20.43
2023-01-15T15:48:32.404Z,20.35
2023-01-15T15:53:36.530Z,20.29
2023-01-15T15:58:39.985Z,20.30
2023-01-15T16:03:47.874Z,20.26
2023-01-15T16:08:56.209Z,20.18
2023-01-15T16:14:00.335Z,20.19
2023-01-15T16:19:03.815Z,20.11
2023-01-15T16:24:09.774Z,20.11
2023-01-15T16:29:19.519Z,20.06
2023-01-15T16:34:23.897Z,20.05
2023-01-15T16:39:30.372Z,19.97
2023-01-15T16:44:38.970Z,19.91
2023-01-15T16:49:41.765Z,19.89
2023-01-15T16:54:47.099Z,19.87
2023-01-15T17:00:00.890Z,19.83
2023-01-15T17:05:16.483Z,19.80
2023-01-15T17:10:29.665Z,19.79
2023-01-15T17:15:41.545Z,19.76
2023-01-15T17:20:45.992Z,19.71
2023-01-15T17:25:50.341Z,19.67
2023-01-15T17:30:54.511Z,19.64
2023-01-15T17:36:00.707Z,19.60
2023-01-15T17:41:07.154Z,19.56
2023-01-15T17:46:10.133Z,19.52
2023-01-15T17:51:14.551Z,19.48
2023-01-15T17:56:38.651Z,19.47
2023-01-15T18:02:01.405Z,19.42
2023-01-15T18:07:04.516Z,19.43
2023-01-15T18:12:08.932Z,19.39
2023-01-15T18:17:12.255Z,19.36
2023-01-15T18:22:15.652Z,19.34
2023-01-15T18:27:19.773Z,19.35
2023-01-15T18:32:22.601Z,19.39
2023-01-15T18:37:25.437Z,19.42
2023-01-15T18:42:47.074Z,19.44
2023-01-15T18:47:50.024Z,19.43
2023-01-15T18:52:52.855Z,19.41
2023-01-15T18:57:57.051Z,19.37
2023-01-15T19:02:59.848Z,19.34
2023-01-15T19:08:02.627Z,19.29
2023-01-15T19:13:09.737Z,19.26
2023-01-15T19:18:30.044Z,19.23
2023-01-15T19:23:32.896Z,19.21
2023-01-15T19:28:37.156Z,19.19
2023-01-15T19:33:40.030Z,19.16
2023-01-15T19:38:43.784Z,19.14
2023-01-15T19:44:08.690Z,19.13
2023-01-15T19:49:33.713Z,19.10
2023-01-15T19:54:54.438Z,19.08
2023-01-15T19:59:58.574Z,19.06
2023-01-15T20:05:01.442Z,19.05
2023-01-15T20:10:05.705Z,19.02
2023-01-15T20:15:10.401Z,19.02
2023-01-15T20:20:13.716Z,19.01
2023-01-15T20:25:16.717Z,19.07
2023-01-15T20:30:22.706Z,19.11
2023-01-15T20:35:27.587Z,19.14
2023-01-15T20:40:30.494Z,19.12
2023-01-15T20:45:34.776Z,19.08
2023-01-15T20:50:39.283Z,19.05
2023-01-15T20:55:55.822Z,19.02
2023-01-15T21:01:06.424Z,18.99
2023-01-15T21:06:10.076Z,18.97
2023-01-15T21:11:12.915Z,18.95
2023-01-15T21:16:17.210Z,18.93
2023-01-15T21:21:21.723Z,18.92
2023-01-15T21:26:25.325Z,18.90
2023-01-15T21:31:29.562Z,18.89
2023-01-15T21:36:32.438Z,18.91
2023-01-15T21:41:52.589Z,18.95
2023-01-15T21:46:56.848Z,18.98
2023-01-15T21:52:00.111Z,19.00
2023-01-15T21:57:02.959Z,18.99
2023-01-15T22:02:12.442Z,18.95
2023-01-15T22:07:16.854Z,18.92
2023-01-15T22:12:19.699Z,18.89
2023-01-15T22:17:23.951Z,18.87
2023-01-15T22:22:30.647Z,18.84
2023-01-15T22:27:35.539Z,18.83
2023-01-15T22:32:39.785Z,18.81
2023-01-15T22:37:42.658Z,18.80
2023-01-15T22:42:45.493Z,18.77
2023-01-15T22:47:49.625Z,18.76
2023-01-15T22:52:52.542Z,18.75
2023-01-15T22:57:55.393Z,18.73
2023-01-15T23:03:05.158Z,18.72
2023-01-15T23:08:08.497Z,18.71
2023-01-15T23:13:11.524Z,18.69
2023-01-15T23:18:15.634Z,18.68
2023-01-15T23:23:18.505Z,18.66
2023-01-15T23:28:21.326Z,18.72
2023-01-15T23:33:26.629Z,18.76
2023-01-15T23:38:29.869Z,18.81
2023-01-15T23:43:50.250Z,18.83
2023-01-15T23:48:54.446Z,18.81
2023-01-15T23:53:57.363Z,18.78
2023-01-15T23:59:00.515Z,18.73
